createdAt,value
2018-03-24T00:01:56.022Z,48.03
2018-03-24T00:04:28.923Z,47.22
2018-03-24T00:07:11.867Z,48.22
2018-03-24T00:09:39.931Z,44.65
2018-03-24T00:12:08.887Z,43.45
2018-03-24T00:14:38.960Z,45.35
2018-03-24T00:17:08.039Z,46.40
2018-03-24T00:19:36.259Z,47.20
2018-03-24T00:22:10.967Z,46.72
2018-03-24T00:24:39.015Z,45.58
2018-03-24T00:27:07.102Z,48.47
2018-03-24T00:29:40.848Z,46.50
2018-03-24T00:32:10.885Z,46.55
2018-03-24T00:34:40.675Z,46.28
2018-03-24T00:37:11.462Z,49.92
2018-03-24T00:39:39.703Z,48.33
2018-03-24T00:42:07.739Z,47.38
2018-03-24T00:44:46.115Z,47.65
2018-03-24T00:47:15.059Z,48.72
2018-03-24T00:49:45.430Z,47.45
2018-03-24T00:52:14.510Z,43.33
2018-03-24T00:54:43.539Z,47.80
2018-03-24T00:57:12.771Z,44.30
2018-03-24T00:59:42.646Z,46.10
2018-03-24T01:02:13.910Z,46.88
2018-03-24T01:04:47.851Z,47.67
2018-03-24T01:07:17.646Z,46.72
2018-03-24T01:09:51.367Z,47.75
2018-03-24T01:12:20.570Z,48.87
2018-03-24T01:14:50.575Z,48.28
2018-03-24T01:17:19.610Z,48.42
2018-03-24T01:19:52.348Z,49.10
2018-03-24T01:22:31.155Z,47.78
2018-03-24T01:25:02.938Z,49.25
2018-03-24T01:27:32.990Z,48.22
2018-03-24T01:30:11.659Z,46.45
2018-03-24T01:32:45.322Z,46.78
2018-03-24T01:35:26.878Z,45.58
2018-03-24T01:38:04.003Z,46.05
2018-03-24T01:40:33.024Z,45.22
2018-03-24T01:43:01.594Z,47.28
2018-03-24T01:45:30.742Z,49.42
2018-03-24T01:48:02.942Z,46.33
2018-03-24T01:50:30.982Z,48.13
2018-03-24T01:52:59.254Z,47.97
2018-03-24T01:55:34.194Z,49.10
2018-03-24T01:58:05.834Z,47.13
2018-03-24T02:00:40.494Z,49.50
2018-03-24T02:03:13.190Z,48.90
2018-03-24T02:05:46.849Z,50.35
2018-03-24T02:08:18.638Z,49.72
2018-03-24T02:10:51.690Z,51.33
2018-03-24T02:13:21.807Z,48.83
2018-03-24T02:15:56.702Z,49.13
2018-03-24T02:18:33.217Z,48.20
2018-03-24T02:21:03.466Z,52.38
2018-03-24T02:23:31.538Z,48.78
2018-03-24T02:26:06.151Z,46.60
2018-03-24T02:28:34.922Z,46.92
2018-03-24T02:31:03.439Z,45.20
2018-03-24T02:33:38.255Z,41.05
2018-03-24T02:36:07.873Z,43.35
2018-03-24T02:38:38.582Z,42.53
2018-03-24T02:41:08.638Z,40.97
2018-03-24T02:43:38.979Z,42.22
2018-03-24T02:46:08.970Z,47.25
2018-03-24T02:48:49.762Z,44.83
2018-03-24T02:51:25.498Z,43.15
2018-03-24T02:53:54.489Z,42.60
2018-03-24T02:59:28.605Z,40.85
2018-03-24T03:01:58.630Z,40.53
2018-03-24T03:04:32.170Z,38.10
2018-03-24T03:07:00.228Z,39.40
2018-03-24T03:09:28.270Z,41.00
2018-03-24T03:12:13.825Z,42.92
2018-03-24T03:14:44.089Z,43.75
2018-03-24T03:17:12.161Z,47.15
2018-03-24T03:19:42.906Z,46.60
2018-03-24T03:22:17.065Z,45.28
2018-03-24T03:24:56.877Z,45.12
2018-03-24T03:27:37.869Z,49.47
2018-03-24T03:30:22.702Z,46.85
2018-03-24T03:32:50.998Z,45.50
2018-03-24T03:35:19.777Z,44.83
2018-03-24T03:37:47.830Z,47.03
2018-03-24T03:40:18.037Z,42.95
2018-03-24T03:42:48.033Z,44.95
2018-03-24T03:45:20.621Z,45.85
2018-03-24T03:47:56.433Z,48.30
2018-03-24T03:50:29.129Z,48.22
2018-03-24T03:53:02.229Z,51.70
2018-03-24T03:55:31.142Z,53.47
2018-03-24T03:58:06.602Z,50.63
2018-03-24T04:00:37.453Z,48.42
2018-03-24T04:03:05.535Z,48.00
2018-03-24T04:05:39.245Z,48.30
2018-03-24T04:08:09.318Z,49.80
2018-03-24T04:10:38.494Z,48.75
2018-03-24T04:13:09.265Z,50.63
2018-03-24T04:15:49.453Z,52.88
2018-03-24T04:18:21.807Z,53.10
2018-03-24T04:20:55.933Z,52.88
2018-03-24T04:23:24.973Z,49.28
2018-03-24T04:25:55.517Z,50.65
2018-03-24T04:28:28.877Z,52.72
2018-03-24T04:30:57.885Z,50.88
2018-03-24T04:33:39.334Z,53.78
2018-03-24T04:36:11.617Z,54.10
2018-03-24T04:38:42.269Z,54.65
2018-03-24T04:41:11.057Z,54.40
2018-03-24T04:43:41.285Z,53.33
2018-03-24T04:46:09.345Z,50.63
2018-03-24T04:48:41.853Z,49.88
2018-03-24T04:51:17.729Z,49.40
2018-03-24T04:53:47.673Z,48.60
2018-03-24T04:56:18.745Z,41.78
2018-03-24T04:58:46.801Z,49.17
2018-03-24T05:01:20.284Z,47.42
2018-03-24T05:03:51.149Z,44.83
2018-03-24T05:06:19.717Z,44.85
2018-03-24T05:09:06.324Z,47.58
2018-03-24T05:11:39.243Z,45.30
2018-03-24T05:14:09.189Z,42.85
2018-03-24T05:16:37.217Z,42.83
2018-03-24T05:19:05.245Z,43.50
2018-03-24T05:21:43.497Z,44.22
2018-03-24T05:24:17.272Z,43.97
2018-03-24T05:26:58.770Z,41.70
2018-03-24T05:29:34.756Z,44.67
2018-03-24T05:32:03.781Z,40.42
2018-03-24T05:34:31.808Z,40.00
2018-03-24T05:37:08.189Z,41.63
2018-03-24T05:39:47.012Z,43.65
2018-03-24T05:42:15.045Z,43.10
2018-03-24T05:44:45.011Z,47.20
2018-03-24T05:47:15.041Z,45.78
2018-03-24T05:49:48.841Z,43.60
2018-03-24T05:52:18.863Z,42.28
2018-03-24T05:54:47.836Z,48.25
2018-03-24T05:57:16.832Z,50.17
2018-03-24T05:59:48.892Z,49.30
2018-03-24T06:02:23.509Z,49.85
2018-03-24T06:04:51.524Z,47.85
2018-03-24T06:07:31.939Z,49.33
2018-03-24T06:10:05.064Z,48.00
2018-03-24T06:12:35.080Z,46.00
2018-03-24T06:15:08.872Z,46.42
2018-03-24T06:17:43.144Z,50.33
2018-03-24T06:20:11.173Z,51.58
2018-03-24T06:22:39.980Z,45.53
2018-03-24T06:25:08.017Z,45.85
2018-03-24T06:27:36.044Z,48.22
2018-03-24T06:30:12.629Z,47.40
2018-03-24T06:32:41.640Z,50.42
2018-03-24T06:35:10.649Z,48.20
2018-03-24T06:37:38.676Z,48.40
2018-03-24T06:40:08.460Z,47.03
2018-03-24T06:42:37.410Z,46.42
2018-03-24T06:45:08.749Z,47.00
2018-03-24T06:47:38.783Z,43.67
2018-03-24T06:50:10.044Z,41.45
2018-03-24T06:52:39.028Z,40.03
2018-03-24T06:55:09.236Z,39.55
2018-03-24T06:57:42.472Z,37.88
2018-03-24T07:00:11.432Z,38.35
2018-03-24T07:02:58.488Z,38.30
2018-03-24T07:05:32.244Z,39.25
2018-03-24T07:08:01.255Z,38.22
2018-03-24T07:10:30.040Z,36.20
2018-03-24T07:13:04.775Z,36.72
2018-03-24T07:15:41.592Z,39.38
2018-03-24T07:18:11.543Z,35.55
2018-03-24T07:20:51.584Z,36.03
2018-03-24T07:23:23.664Z,34.58
2018-03-24T07:25:56.420Z,30.05
2018-03-24T07:28:24.471Z,25.73
2018-03-24T07:30:53.504Z,26.52
2018-03-24T07:33:21.527Z,23.05
2018-03-24T07:35:54.560Z,22.23
2018-03-24T07:38:23.524Z,22.48
2018-03-24T07:40:58.072Z,23.02
2018-03-24T07:43:34.107Z,22.20
2018-03-24T07:46:04.028Z,21.25
2018-03-24T07:48:44.452Z,23.00
2018-03-24T07:51:19.076Z,22.27
2018-03-24T07:54:03.500Z,22.67
2018-03-24T07:56:40.407Z,20.85
2018-03-24T07:59:20.972Z,22.37
2018-03-24T08:02:05.593Z,22.67
2018-03-24T08:04:41.687Z,22.20
2018-03-24T08:07:09.704Z,22.13
2018-03-24T08:09:42.492Z,21.55
2018-03-24T08:12:16.384Z,22.85
2018-03-24T08:14:50.092Z,22.27
2018-03-24T08:17:18.132Z,20.85
2018-03-24T08:19:49.704Z,20.45
2018-03-24T08:22:17.739Z,21.23
2018-03-24T08:24:53.859Z,21.43
2018-03-24T08:27:23.252Z,22.30
2018-03-24T08:29:52.384Z,19.30
2018-03-24T08:32:21.336Z,19.52
2018-03-24T08:34:51.347Z,17.77
2018-03-24T08:37:20.267Z,21.10
2018-03-24T08:39:50.964Z,20.03
2018-03-24T08:42:19.960Z,20.50
2018-03-24T08:44:53.048Z,20.40
2018-03-24T08:47:22.035Z,18.33
2018-03-24T08:49:51.058Z,18.53
2018-03-24T08:52:24.856Z,20.00
2018-03-24T08:54:52.899Z,20.13
2018-03-24T08:57:30.771Z,18.90
2018-03-24T09:00:03.821Z,19.10
2018-03-24T09:02:36.540Z,18.50
2018-03-24T09:05:11.899Z,18.80
2018-03-24T09:07:47.848Z,19.10
2018-03-24T09:10:21.916Z,18.10
2018-03-24T09:12:52.612Z,18.00
2018-03-24T09:15:30.412Z,19.43
2018-03-24T09:18:00.331Z,19.50
2018-03-24T09:20:38.248Z,20.03
2018-03-24T09:23:08.141Z,19.57
2018-03-24T09:25:41.340Z,18.40
2018-03-24T09:28:26.539Z,20.23
2018-03-24T09:31:04.820Z,19.53
2018-03-24T09:33:39.335Z,17.67
2018-03-24T09:36:17.251Z,19.00
2018-03-24T09:38:48.887Z,16.93
2018-03-24T09:41:28.528Z,18.73
2018-03-24T09:43:56.604Z,18.50
2018-03-24T09:46:39.943Z,18.20
2018-03-24T09:49:22.679Z,18.47
2018-03-24T09:51:51.492Z,17.37
2018-03-24T09:54:21.471Z,17.67
2018-03-24T09:56:52.187Z,15.43
2018-03-24T09:59:21.208Z,17.77
2018-03-24T10:01:55.875Z,17.00
2018-03-24T10:04:24.918Z,17.13
2018-03-24T10:06:54.923Z,17.47
2018-03-24T10:09:27.484Z,18.17
2018-03-24T10:12:02.999Z,16.73
2018-03-24T10:14:38.859Z,16.70
2018-03-24T10:17:11.027Z,16.57
2018-03-24T10:19:39.079Z,13.83
2018-03-24T10:25:26.035Z,16.10
2018-03-24T10:28:02.683Z,15.57
2018-03-24T10:30:36.363Z,14.60
2018-03-24T10:36:03.295Z,14.73
2018-03-24T10:38:31.319Z,15.43
2018-03-24T10:41:05.983Z,15.83
2018-03-24T10:43:38.967Z,15.70
2018-03-24T10:49:02.875Z,15.63
2018-03-24T10:51:42.279Z,13.90
2018-03-24T10:54:30.195Z,15.27
2018-03-24T10:57:02.016Z,14.40
2018-03-24T10:59:32.719Z,14.40
2018-03-24T11:02:00.758Z,13.80
2018-03-24T11:04:29.691Z,14.53
2018-03-24T11:06:57.714Z,15.30
2018-03-24T11:09:25.746Z,14.90
2018-03-24T11:11:58.053Z,13.27
2018-03-24T11:14:27.103Z,12.60
2018-03-24T11:17:01.720Z,13.43
2018-03-24T11:19:29.751Z,14.70
2018-03-24T11:22:15.195Z,13.07
2018-03-24T11:24:45.895Z,12.50
2018-03-24T11:27:24.379Z,13.70
2018-03-24T11:29:52.407Z,14.53
2018-03-24T11:32:25.567Z,14.93
2018-03-24T11:34:54.574Z,13.20
2018-03-24T11:37:26.622Z,12.13
2018-03-24T11:40:03.195Z,13.97
2018-03-24T11:42:43.019Z,13.70
2018-03-24T11:45:27.739Z,14.40
2018-03-24T11:47:57.531Z,11.97
2018-03-24T11:50:28.769Z,11.87
2018-03-24T11:53:00.379Z,12.23
2018-03-24T11:55:29.406Z,11.77
2018-03-24T11:57:57.434Z,10.90
2018-03-24T12:00:30.062Z,12.37
2018-03-24T12:02:58.091Z,12.13
2018-03-24T12:05:27.130Z,11.73
2018-03-24T12:07:55.151Z,11.87
2018-03-24T12:10:25.184Z,10.90
2018-03-24T12:12:53.226Z,10.93
2018-03-24T12:15:25.310Z,11.77
2018-03-24T12:17:55.274Z,11.30
2018-03-24T12:20:30.210Z,11.50
2018-03-24T12:23:00.243Z,12.87
2018-03-24T12:25:30.946Z,11.30
2018-03-24T12:28:02.518Z,10.67
2018-03-24T12:30:31.330Z,10.90
2018-03-24T12:33:00.280Z,11.30
2018-03-24T12:35:28.317Z,11.03
2018-03-24T12:37:58.234Z,11.50
2018-03-24T12:40:26.326Z,10.63
2018-03-24T12:42:54.386Z,10.50
2018-03-24T12:45:23.418Z,11.57
2018-03-24T12:47:52.266Z,10.23
2018-03-24T12:50:24.910Z,11.20
2018-03-24T12:52:58.142Z,9.83
2018-03-24T12:55:26.190Z,11.20
2018-03-24T12:58:02.361Z,9.70
2018-03-24T13:00:40.186Z,10.63
2018-03-24T13:03:10.213Z,11.50
2018-03-24T13:05:43.610Z,11.83
2018-03-24T13:08:13.482Z,11.20
2018-03-24T13:10:41.502Z,11.40
2018-03-24T13:13:12.787Z,13.30
2018-03-24T13:15:40.834Z,11.97
2018-03-24T13:18:10.838Z,11.53
2018-03-24T13:20:46.433Z,10.90
2018-03-24T13:23:14.446Z,12.50
2018-03-24T13:25:43.337Z,11.20
2018-03-24T13:28:13.198Z,11.90
2018-03-24T13:30:46.565Z,12.13
2018-03-24T13:33:21.605Z,10.63
2018-03-24T13:35:49.617Z,11.87
2018-03-24T13:38:17.646Z,12.67
2018-03-24T13:40:53.361Z,12.27
2018-03-24T13:43:25.430Z,11.03
2018-03-24T13:46:03.725Z,11.10
2018-03-24T13:48:41.481Z,12.00
2018-03-24T13:51:11.497Z,11.57
2018-03-24T13:53:40.557Z,12.33
2018-03-24T13:56:09.377Z,11.77
2018-03-24T13:58:37.441Z,11.60
2018-03-24T14:01:09.189Z,13.20
2018-03-24T14:03:39.547Z,11.60
2018-03-24T14:06:08.549Z,12.50
2018-03-24T14:08:37.617Z,11.77
2018-03-24T14:11:06.657Z,12.60
2018-03-24T14:13:34.681Z,12.73
2018-03-24T14:16:03.730Z,12.87
2018-03-24T14:18:32.513Z,12.50
2018-03-24T14:21:08.825Z,12.53
2018-03-24T14:23:36.840Z,12.00
2018-03-24T14:26:06.849Z,12.27
2018-03-24T14:28:34.877Z,11.07
2018-03-24T14:31:07.085Z,12.17
2018-03-24T14:33:42.389Z,12.23
2018-03-24T14:36:15.505Z,12.50
2018-03-24T14:38:43.565Z,14.30
2018-03-24T14:41:11.949Z,12.67
2018-03-24T14:43:46.465Z,14.10
2018-03-24T14:46:14.497Z,13.07
2018-03-24T14:48:43.452Z,12.63
2018-03-24T14:51:11.473Z,11.97
2018-03-24T14:53:39.501Z,12.93
2018-03-24T14:56:07.522Z,14.00
2018-03-24T14:58:38.797Z,13.47
2018-03-24T15:01:14.250Z,13.43
2018-03-24T15:03:43.241Z,13.87
2018-03-24T15:06:11.287Z,13.33
2018-03-24T15:08:43.809Z,12.77
2018-03-24T15:11:11.825Z,12.50
2018-03-24T15:13:41.761Z,12.93
2018-03-24T15:16:09.853Z,13.80
2018-03-24T15:18:38.857Z,13.20
2018-03-24T15:21:10.494Z,13.20
2018-03-24T15:23:42.401Z,12.50
2018-03-24T15:26:17.957Z,15.00
2018-03-24T15:28:58.529Z,14.07
2018-03-24T15:31:38.209Z,13.27
2018-03-24T15:34:23.073Z,13.47
2018-03-24T15:36:54.197Z,14.70
2018-03-24T15:39:27.196Z,13.90
2018-03-24T15:42:01.609Z,13.10
2018-03-24T15:44:29.640Z,13.90
2018-03-24T15:46:57.677Z,13.10
2018-03-24T15:49:31.359Z,13.20
2018-03-24T15:52:00.358Z,13.93
2018-03-24T15:54:30.362Z,14.20
2018-03-24T15:56:58.397Z,13.03
2018-03-24T15:59:30.598Z,14.47
2018-03-24T16:02:02.422Z,14.43
2018-03-24T16:04:36.152Z,15.67
2018-03-24T16:07:04.172Z,15.60
2018-03-24T16:09:32.205Z,16.47
2018-03-24T16:12:01.201Z,14.93
2018-03-24T16:14:29.204Z,16.57
2018-03-24T16:16:59.165Z,15.93
2018-03-24T16:19:31.136Z,16.40
2018-03-24T16:21:59.158Z,16.30
2018-03-24T16:24:27.180Z,14.60
2018-03-24T16:26:57.186Z,16.50
2018-03-24T16:29:27.205Z,15.60
2018-03-24T16:32:00.933Z,16.57
2018-03-24T16:34:29.725Z,14.33
2018-03-24T16:37:02.090Z,15.07
2018-03-24T16:39:35.924Z,16.73
2018-03-24T16:42:07.838Z,15.83
2018-03-24T16:44:35.852Z,15.47
2018-03-24T16:47:05.813Z,14.33
2018-03-24T16:49:34.813Z,16.67
2018-03-24T16:52:02.833Z,14.50
2018-03-24T16:54:43.805Z,14.37
2018-03-24T16:57:11.827Z,12.57
2018-03-24T16:59:46.508Z,14.97
2018-03-24T17:02:16.449Z,17.30
2018-03-24T17:04:45.456Z,15.70
2018-03-24T17:07:31.693Z,16.55
2018-03-24T17:10:01.668Z,15.10
2018-03-24T17:12:31.688Z,18.62
2018-03-24T17:15:11.387Z,17.53
2018-03-24T17:17:47.257Z,17.27
2018-03-24T17:20:16.277Z,17.50
2018-03-24T17:22:44.312Z,16.98
2018-03-24T17:25:12.344Z,16.05
2018-03-24T17:27:55.907Z,17.27
2018-03-24T17:30:23.917Z,18.20
2018-03-24T17:32:52.912Z,17.65
2018-03-24T17:35:24.052Z,16.75
2018-03-24T17:37:52.081Z,16.55
2018-03-24T17:40:28.421Z,23.00
2018-03-24T17:43:03.320Z,27.13
2018-03-24T17:45:31.383Z,34.67
2018-03-24T17:48:01.409Z,21.30
2018-03-24T17:50:29.581Z,17.87
2018-03-24T17:53:00.956Z,18.30
2018-03-24T17:55:35.468Z,21.35
2018-03-24T17:58:12.192Z,20.52
2018-03-24T18:00:40.224Z,21.10
2018-03-24T18:03:09.180Z,18.30
2018-03-24T18:05:38.092Z,19.40
2018-03-24T18:08:10.168Z,17.67
2018-03-24T18:10:41.989Z,17.62
2018-03-24T18:13:11.917Z,19.85
2018-03-24T18:15:43.476Z,17.75
2018-03-24T18:18:11.484Z,19.45
2018-03-24T18:20:46.124Z,18.87
2018-03-24T18:23:16.066Z,20.75
2018-03-24T18:25:45.057Z,18.67
2018-03-24T18:28:15.097Z,18.92
2018-03-24T18:30:43.096Z,19.05
2018-03-24T18:33:16.756Z,17.45
2018-03-24T18:35:46.764Z,18.58
2018-03-24T18:38:15.756Z,18.98
2018-03-24T18:40:53.156Z,18.92
2018-03-24T18:43:33.096Z,21.05
2018-03-24T18:46:01.128Z,19.02
2018-03-24T18:48:31.088Z,19.45
2018-03-24T18:51:00.840Z,20.58
2018-03-24T18:53:35.284Z,20.05
2018-03-24T18:56:05.231Z,20.10
2018-03-24T18:58:33.264Z,18.85
2018-03-24T19:01:04.968Z,19.52
2018-03-24T19:03:34.976Z,20.15
2018-03-24T19:06:03.012Z,18.67
2018-03-24T19:08:31.040Z,20.50
2018-03-24T19:11:01.796Z,21.17
2018-03-24T19:13:30.741Z,19.58
2018-03-24T19:15:58.763Z,19.92
2018-03-24T19:18:38.932Z,19.48
2018-03-24T19:21:08.787Z,21.70
2018-03-24T19:26:10.179Z,20.25
2018-03-24T19:28:40.223Z,21.90
2018-03-24T19:31:13.955Z,22.95
2018-03-24T19:36:35.883Z,19.80
2018-03-24T19:39:05.824Z,20.42
2018-03-24T19:41:39.004Z,19.50
2018-03-24T19:44:10.780Z,20.30
2018-03-24T19:46:43.847Z,19.80
2018-03-24T19:49:17.582Z,21.15
2018-03-24T19:51:58.090Z,19.92
2018-03-24T19:54:26.119Z,21.33
2018-03-24T19:56:54.159Z,19.70
2018-03-24T19:59:30.008Z,21.00
2018-03-24T20:02:01.172Z,22.65
2018-03-24T20:04:42.280Z,20.48
2018-03-24T20:07:20.207Z,21.50
2018-03-24T20:09:54.267Z,20.75
2018-03-24T20:12:27.331Z,23.02
2018-03-24T20:15:01.258Z,22.17
2018-03-24T20:17:31.118Z,21.70
2018-03-24T20:20:00.189Z,22.05
2018-03-24T20:22:33.335Z,21.85
2018-03-24T20:25:04.976Z,20.88
2018-03-24T20:27:35.019Z,21.50
2018-03-24T20:30:05.027Z,23.25
2018-03-24T20:32:34.012Z,21.20
2018-03-24T20:35:19.336Z,19.52
2018-03-24T20:37:49.331Z,21.83
2018-03-24T20:40:21.171Z,21.83
2018-03-24T20:42:49.228Z,21.73
2018-03-24T20:45:20.603Z,20.40
2018-03-24T20:47:53.519Z,20.33
2018-03-24T20:50:23.499Z,19.85
2018-03-24T20:52:51.527Z,21.25
2018-03-24T20:55:19.583Z,20.15
2018-03-24T20:57:47.639Z,21.92
2018-03-24T21:00:21.040Z,19.20
2018-03-24T21:02:53.791Z,21.25
2018-03-24T21:05:29.319Z,21.27
2018-03-24T21:08:00.659Z,22.65
2018-03-24T21:10:35.263Z,21.60
2018-03-24T21:13:08.171Z,20.65
2018-03-24T21:15:37.851Z,19.00
2018-03-24T21:18:12.447Z,23.10
2018-03-24T21:20:42.642Z,23.25
2018-03-24T21:23:10.679Z,24.25
2018-03-24T21:25:39.640Z,20.45
2018-03-24T21:28:07.827Z,21.65
2018-03-24T21:30:37.623Z,21.17
2018-03-24T21:33:07.066Z,21.60
2018-03-24T21:35:41.879Z,21.25
2018-03-24T21:38:09.951Z,22.05
2018-03-24T21:40:42.095Z,21.58
2018-03-24T21:43:11.423Z,21.80
2018-03-24T21:45:43.891Z,23.12
2018-03-24T21:48:13.467Z,23.15
2018-03-24T21:50:43.577Z,21.48
2018-03-24T21:53:12.566Z,21.55
2018-03-24T21:55:51.643Z,21.75
2018-03-24T21:58:22.056Z,21.10
2018-03-24T22:00:57.711Z,20.75
2018-03-24T22:03:28.099Z,20.83
2018-03-24T22:05:59.939Z,21.80
2018-03-24T22:08:29.723Z,20.15
2018-03-24T22:10:57.784Z,22.52
2018-03-24T22:13:26.798Z,22.92
2018-03-24T22:15:57.154Z,21.02
2018-03-24T22:18:39.519Z,23.45
2018-03-24T22:21:09.588Z,21.83
2018-03-24T22:23:39.543Z,21.50
2018-03-24T22:26:07.782Z,20.62
2018-03-24T22:28:37.782Z,21.95
2018-03-24T22:31:05.878Z,22.27
2018-03-24T22:33:45.458Z,22.45
2018-03-24T22:36:13.506Z,22.87
2018-03-24T22:38:42.519Z,23.87
2018-03-24T22:41:12.558Z,22.40
2018-03-24T22:43:45.858Z,22.10
2018-03-24T22:46:16.582Z,22.10
2018-03-24T22:48:45.430Z,23.33
2018-03-24T22:51:13.487Z,22.42
2018-03-24T22:53:41.530Z,22.15
2018-03-24T22:56:11.574Z,22.60
2018-03-24T22:58:42.634Z,22.75
2018-03-24T23:01:10.674Z,22.98
2018-03-24T23:03:38.762Z,23.48
2018-03-24T23:06:08.138Z,21.50
2018-03-24T23:08:38.317Z,21.80
2018-03-24T23:11:10.018Z,22.90
2018-03-24T23:13:38.042Z,23.90
2018-03-24T23:16:08.094Z,22.20
2018-03-24T23:18:37.022Z,23.20
2018-03-24T23:21:09.977Z,23.73
2018-03-24T23:23:38.030Z,23.48
2018-03-24T23:26:07.014Z,25.17
2018-03-24T23:28:37.884Z,23.50
2018-03-24T23:31:05.950Z,23.55
2018-03-24T23:33:38.005Z,23.75
2018-03-24T23:36:12.413Z,22.75
2018-03-24T23:38:44.496Z,24.85
2018-03-24T23:41:20.222Z,25.25
2018-03-24T23:44:00.915Z,23.67
2018-03-24T23:46:29.330Z,23.12
2018-03-24T23:49:00.406Z,21.77
2018-03-24T23:51:29.661Z,20.90
2018-03-24T23:53:59.018Z,23.92
2018-03-24T23:56:44.814Z,22.10
2018-03-24T23:59:13.946Z,22.87
